createdAt,value
2023-05-17T00:01:08.180Z,98073.06
2023-05-17T00:03:38.917Z,98069.78
2023-05-17T00:06:06.535Z,98074.91
2023-05-17T00:08:34.020Z,98066.13
2023-05-17T00:11:01.664Z,98061.22
2023-05-17T00:13:29.123Z,98071.00
2023-05-17T00:15:56.612Z,98068.53
2023-05-17T00:18:24.320Z,98072.19
2023-05-17T00:20:51.908Z,98063.78
2023-05-17T00:23:19.449Z,98068.69
2023-05-17T00:25:46.984Z,98076.47
2023-05-17T00:28:14.483Z,98071.97
2023-05-17T00:30:42.018Z,98075.66
2023-05-17T00:33:09.677Z,98068.69
2023-05-17T00:35:37.253Z,98071.94
2023-05-17T00:38:04.826Z,98072.13
2023-05-17T00:40:32.379Z,98074.59
2023-05-17T00:43:00.147Z,98080.69
2023-05-17T00:45:27.967Z,98085.16
2023-05-17T00:47:56.637Z,98074.28
2023-05-17T00:50:24.601Z,98076.28
2023-05-17T00:52:52.185Z,98076.50
2023-05-17T00:55:20.707Z,98082.22
2023-05-17T00:57:49.011Z,98085.25
2023-05-17T01:00:17.224Z,98085.66
2023-05-17T01:02:48.889Z,98079.72
2023-05-17T01:05:16.601Z,98083.19
2023-05-17T01:07:44.038Z,98083.63
2023-05-17T01:10:12.159Z,98081.38
2023-05-17T01:12:56.030Z,98075.84
2023-05-17T01:15:33.218Z,98089.25
2023-05-17T01:18:12.732Z,98082.53
2023-05-17T01:20:43.886Z,98088.81
2023-05-17T01:23:48.947Z,98092.66
2023-05-17T01:26:27.916Z,98091.00
2023-05-17T01:28:57.493Z,98093.63
2023-05-17T01:31:26.543Z,98099.69
2023-05-17T01:33:58.996Z,98105.13
2023-05-17T01:36:28.643Z,98100.19
2023-05-17T01:38:56.238Z,98098.97
2023-05-17T01:41:30.952Z,98098.69
2023-05-17T01:44:10.524Z,98097.63
2023-05-17T01:46:43.219Z,98095.75
2023-05-17T01:49:30.055Z,98099.97
2023-05-17T01:52:05.523Z,98092.03
2023-05-17T01:54:59.923Z,98099.34
2023-05-17T01:57:29.963Z,98097.09
2023-05-17T02:00:00.663Z,98094.81
2023-05-17T02:02:30.424Z,98097.03
2023-05-17T02:04:58.746Z,98104.75
2023-05-17T02:07:27.096Z,98103.13
2023-05-17T02:09:56.110Z,98111.66
2023-05-17T02:12:23.623Z,98108.22
2023-05-17T02:14:51.209Z,98107.84
2023-05-17T02:17:18.933Z,98119.88
2023-05-17T02:19:46.444Z,98127.41
2023-05-17T02:22:14.024Z,98126.41
2023-05-17T02:24:41.586Z,98124.03
2023-05-17T02:27:09.045Z,98132.16
2023-05-17T02:29:36.793Z,98132.97
2023-05-17T02:32:04.557Z,98142.91
2023-05-17T02:34:32.298Z,98141.28
2023-05-17T02:37:00.456Z,98134.53
2023-05-17T02:39:27.993Z,98138.56
2023-05-17T02:41:55.843Z,98136.53
2023-05-17T02:44:24.682Z,98143.88
2023-05-17T02:46:53.995Z,98147.50
2023-05-17T02:49:21.624Z,98150.13
2023-05-17T02:51:49.134Z,98146.41
2023-05-17T02:54:16.693Z,98155.94
2023-05-17T02:56:44.204Z,98148.38
2023-05-17T02:59:12.143Z,98149.00
2023-05-17T03:01:42.455Z,98141.19
2023-05-17T03:04:10.741Z,98148.03
2023-05-17T03:06:38.735Z,98140.72
2023-05-17T03:09:07.164Z,98150.03
2023-05-17T03:11:35.179Z,98151.66
2023-05-17T03:14:06.576Z,98153.31
2023-05-17T03:16:34.170Z,98144.31
2023-05-17T03:19:02.631Z,98157.69
2023-05-17T03:21:30.450Z,98164.63
2023-05-17T03:23:58.288Z,98163.81
2023-05-17T03:26:27.661Z,98173.38
2023-05-17T03:28:55.242Z,98168.91
2023-05-17T03:31:22.740Z,98158.16
2023-05-17T03:33:50.525Z,98165.72
2023-05-17T03:36:19.413Z,98168.81
2023-05-17T03:38:46.999Z,98168.44
2023-05-17T03:41:15.403Z,98172.34
2023-05-17T03:43:43.121Z,98184.00
2023-05-17T03:46:13.086Z,98181.25
2023-05-17T03:48:41.583Z,98189.44
2023-05-17T03:51:10.559Z,98189.97
2023-05-17T03:53:41.364Z,98200.41
2023-05-17T03:56:12.245Z,98197.28
2023-05-17T03:58:40.001Z,98196.97
2023-05-17T04:01:07.485Z,98212.72
2023-05-17T04:03:37.785Z,98206.66
2023-05-17T04:06:07.381Z,98207.97
2023-05-17T04:08:36.794Z,98206.00
2023-05-17T04:11:10.627Z,98203.09
2023-05-17T04:13:38.369Z,98206.59
2023-05-17T04:16:06.966Z,98203.56
2023-05-17T04:18:36.403Z,98206.25
2023-05-17T04:21:05.360Z,98197.84
2023-05-17T04:23:34.946Z,98204.91
2023-05-17T04:26:04.966Z,98205.53
2023-05-17T04:28:35.573Z,98192.44
2023-05-17T04:31:08.421Z,98193.69
2023-05-17T04:33:37.150Z,98196.28
2023-05-17T04:36:06.698Z,98193.09
2023-05-17T04:38:35.442Z,98200.53
2023-05-17T04:41:06.786Z,98199.94
2023-05-17T04:43:37.092Z,98205.91
2023-05-17T04:46:09.266Z,98208.56
2023-05-17T04:48:37.268Z,98221.25
2023-05-17T04:51:05.264Z,98226.94
2023-05-17T04:53:33.834Z,98226.88
2023-05-17T04:56:07.538Z,98229.41
2023-05-17T04:58:36.155Z,98225.06
2023-05-17T05:01:05.997Z,98219.50
2023-05-17T05:03:35.183Z,98215.16
2023-05-17T05:06:04.341Z,98216.00
2023-05-17T05:08:34.372Z,98211.97
2023-05-17T05:11:02.303Z,98207.94
2023-05-17T05:13:30.965Z,98208.72
2023-05-17T05:15:58.691Z,98217.47
2023-05-17T05:18:27.033Z,98220.28
2023-05-17T05:20:54.745Z,98229.00
2023-05-17T05:23:22.383Z,98222.66
2023-05-17T05:25:50.241Z,98220.03
2023-05-17T05:28:18.245Z,98218.28
2023-05-17T05:30:45.912Z,98215.66
2023-05-17T05:33:15.002Z,98233.28
2023-05-17T05:35:43.602Z,98231.81
2023-05-17T05:38:11.353Z,98229.13
2023-05-17T05:40:39.173Z,98231.66
2023-05-17T05:43:06.772Z,98228.97
2023-05-17T05:45:34.387Z,98244.53
2023-05-17T05:48:05.823Z,98246.84
2023-05-17T05:50:35.025Z,98253.28
2023-05-17T05:53:18.013Z,98249.28
2023-05-17T05:55:52.276Z,98262.22
2023-05-17T05:58:21.024Z,98258.03
2023-05-17T06:00:48.974Z,98269.16
2023-05-17T06:03:16.646Z,98272.94
2023-05-17T06:05:44.341Z,98266.47
2023-05-17T06:08:11.920Z,98273.44
2023-05-17T06:10:39.438Z,98274.72
2023-05-17T06:13:07.167Z,98269.53
2023-05-17T06:15:34.865Z,98269.81
2023-05-17T06:18:02.540Z,98262.88
2023-05-17T06:20:30.446Z,98264.78
2023-05-17T06:22:58.239Z,98259.72
2023-05-17T06:25:25.834Z,98275.94
2023-05-17T06:27:53.247Z,98268.69
2023-05-17T06:30:21.091Z,98267.56
2023-05-17T06:32:48.686Z,98269.25
2023-05-17T06:35:16.415Z,98275.94
2023-05-17T06:37:43.966Z,98278.84
2023-05-17T06:40:16.464Z,98282.16
2023-05-17T06:42:44.867Z,98279.31
2023-05-17T06:45:13.921Z,98288.69
2023-05-17T06:47:41.832Z,98287.81
2023-05-17T06:50:09.957Z,98303.75
2023-05-17T06:52:37.470Z,98302.38
2023-05-17T06:55:05.331Z,98311.06
2023-05-17T06:57:32.911Z,98306.53
2023-05-17T07:00:00.432Z,98307.13
2023-05-17T07:02:27.908Z,98315.63
2023-05-17T07:04:56.897Z,98314.44
2023-05-17T07:07:24.418Z,98304.34
2023-05-17T07:09:52.001Z,98299.81
2023-05-17T07:12:19.538Z,98294.00
2023-05-17T07:14:47.106Z,98294.91
2023-05-17T07:17:14.550Z,98294.34
2023-05-17T07:19:42.209Z,98293.25
2023-05-17T07:22:10.255Z,98291.13
2023-05-17T07:24:37.729Z,98297.31
2023-05-17T07:27:05.667Z,98304.31
2023-05-17T07:29:33.247Z,98307.81
2023-05-17T07:32:00.824Z,98307.38
2023-05-17T07:34:28.375Z,98319.38
2023-05-17T07:36:57.255Z,98310.19
2023-05-17T07:39:24.784Z,98305.88
2023-05-17T07:41:52.314Z,98309.88
2023-05-17T07:44:21.907Z,98307.88
2023-05-17T07:46:52.165Z,98307.78
2023-05-17T07:49:19.961Z,98303.22
2023-05-17T07:51:47.636Z,98312.78
2023-05-17T07:54:27.070Z,98323.19
2023-05-17T07:56:55.598Z,98324.09
2023-05-17T07:59:26.336Z,98329.41
2023-05-17T08:01:54.076Z,98327.41
2023-05-17T08:04:21.662Z,98337.88
2023-05-17T08:06:50.336Z,98348.63
2023-05-17T08:09:18.141Z,98339.66
2023-05-17T08:11:48.664Z,98341.94
2023-05-17T08:14:17.173Z,98326.00
2023-05-17T08:16:46.521Z,98326.28
2023-05-17T08:19:15.458Z,98329.16
2023-05-17T08:21:44.087Z,98326.94
2023-05-17T08:24:11.926Z,98330.84
2023-05-17T08:26:39.564Z,98330.03
2023-05-17T08:29:07.359Z,98313.19
2023-05-17T08:31:34.883Z,98323.91
2023-05-17T08:34:02.421Z,98322.53
2023-05-17T08:36:30.038Z,98316.38
2023-05-17T08:38:57.648Z,98323.38
2023-05-17T08:41:25.248Z,98316.09
2023-05-17T08:43:54.347Z,98327.00
2023-05-17T08:46:23.917Z,98318.31
2023-05-17T08:48:53.547Z,98309.38
2023-05-17T08:51:22.168Z,98312.06
2023-05-17T08:53:50.876Z,98314.84
2023-05-17T08:56:20.925Z,98319.75
2023-05-17T08:58:56.953Z,98321.34
2023-05-17T09:01:26.734Z,98322.53
2023-05-17T09:03:55.048Z,98322.28
2023-05-17T09:06:24.553Z,98317.13
2023-05-17T09:08:53.857Z,98321.50
2023-05-17T09:11:39.450Z,98322.00
2023-05-17T09:14:07.957Z,98315.88
2023-05-17T09:16:37.400Z,98325.50
2023-05-17T09:19:06.377Z,98316.22
2023-05-17T09:21:34.559Z,98336.31
2023-05-17T09:24:07.327Z,98337.63
2023-05-17T09:26:40.351Z,98333.91
2023-05-17T09:29:16.056Z,98341.44
2023-05-17T09:31:45.005Z,98349.69
2023-05-17T09:34:12.709Z,98357.97
2023-05-17T09:36:44.145Z,98361.59
2023-05-17T09:39:13.789Z,98357.78
2023-05-17T09:41:48.174Z,98352.22
2023-05-17T09:44:16.693Z,98347.09
2023-05-17T09:46:49.017Z,98350.22
2023-05-17T09:49:18.070Z,98362.00
2023-05-17T09:51:47.860Z,98363.88
2023-05-17T09:54:15.575Z,98366.69
2023-05-17T09:56:43.418Z,98364.81
2023-05-17T09:59:13.416Z,98358.00
2023-05-17T10:01:43.126Z,98360.28
2023-05-17T10:04:12.168Z,98355.03
2023-05-17T10:09:19.057Z,98363.63
2023-05-17T10:11:47.490Z,98361.28
2023-05-17T10:14:24.102Z,98361.84
2023-05-17T10:16:52.528Z,98368.41
2023-05-17T10:19:25.182Z,98375.41
2023-05-17T10:21:53.997Z,98366.88
2023-05-17T10:24:21.981Z,98370.38
2023-05-17T10:26:50.668Z,98378.00
2023-05-17T10:29:21.310Z,98376.72
2023-05-17T10:31:53.123Z,98382.53
2023-05-17T10:34:21.417Z,98381.72
2023-05-17T10:36:50.221Z,98386.91
2023-05-17T10:39:18.434Z,98384.91
2023-05-17T10:41:52.888Z,98385.41
2023-05-17T10:44:22.102Z,98372.66
2023-05-17T10:46:57.610Z,98373.00
2023-05-17T10:49:33.238Z,98370.97
2023-05-17T10:52:16.991Z,98367.56
2023-05-17T10:54:48.874Z,98366.63
2023-05-17T10:57:50.567Z,98358.28
2023-05-17T11:00:22.109Z,98359.09
2023-05-17T11:02:51.026Z,98364.31
2023-05-17T11:05:25.904Z,98365.25
2023-05-17T11:08:14.332Z,98363.53
2023-05-17T11:11:14.251Z,98361.75
2023-05-17T11:14:03.586Z,98358.91
2023-05-17T11:16:38.198Z,98361.50
2023-05-17T11:19:11.420Z,98355.19
2023-05-17T11:21:47.506Z,98343.28
2023-05-17T11:24:25.710Z,98343.56
2023-05-17T11:26:56.071Z,98340.06
2023-05-17T11:29:29.635Z,98353.28
2023-05-17T11:31:57.315Z,98348.13
2023-05-17T11:34:30.057Z,98345.69
2023-05-17T11:36:57.708Z,98347.28
2023-05-17T11:39:25.698Z,98327.84
2023-05-17T11:41:57.008Z,98336.28
2023-05-17T11:44:34.891Z,98341.59
2023-05-17T11:47:04.254Z,98337.91
2023-05-17T11:49:36.331Z,98333.41
2023-05-17T11:52:06.333Z,98327.53
2023-05-17T11:54:34.405Z,98326.13
2023-05-17T11:57:05.140Z,98334.91
2023-05-17T11:59:41.839Z,98340.13
2023-05-17T12:02:10.183Z,98342.72
2023-05-17T12:04:39.477Z,98351.06
2023-05-17T12:07:10.909Z,98341.47
2023-05-17T12:09:39.494Z,98345.75
2023-05-17T12:12:07.836Z,98336.09
2023-05-17T12:14:35.451Z,98340.22
2023-05-17T12:17:08.213Z,98343.97
2023-05-17T12:19:36.303Z,98339.34
2023-05-17T12:22:09.008Z,98340.41
2023-05-17T12:24:38.532Z,98344.31
2023-05-17T12:27:06.607Z,98345.63
2023-05-17T12:29:34.619Z,98361.81
2023-05-17T12:32:02.781Z,98379.97
2023-05-17T12:34:31.317Z,98368.75
2023-05-17T12:36:59.184Z,98366.78
2023-05-17T12:39:27.003Z,98380.22
2023-05-17T12:41:55.373Z,98378.19
2023-05-17T12:44:22.994Z,98364.03
2023-05-17T12:46:53.991Z,98356.63
2023-05-17T12:49:22.348Z,98353.94
2023-05-17T12:51:50.305Z,98367.81
2023-05-17T12:54:23.854Z,98370.84
2023-05-17T12:56:51.707Z,98348.56
2023-05-17T12:59:25.703Z,98356.63
2023-05-17T13:01:55.949Z,98356.38
2023-05-17T13:04:34.408Z,98360.41
2023-05-17T13:07:04.282Z,98366.88
2023-05-17T13:09:33.418Z,98360.19
2023-05-17T13:12:08.090Z,98363.13
2023-05-17T13:14:49.463Z,98368.00
2023-05-17T13:17:22.398Z,98368.56
2023-05-17T13:19:50.391Z,98360.72
2023-05-17T13:22:18.144Z,98372.69
2023-05-17T13:24:45.682Z,98361.06
2023-05-17T13:27:13.332Z,98366.00
2023-05-17T13:29:42.828Z,98369.91
2023-05-17T13:32:12.156Z,98373.41
2023-05-17T13:34:40.780Z,98369.13
2023-05-17T13:37:11.536Z,98360.63
2023-05-17T13:39:41.830Z,98367.91
2023-05-17T13:42:11.155Z,98369.44
2023-05-17T13:44:39.287Z,98372.25
2023-05-17T13:47:07.144Z,98369.66
2023-05-17T13:49:34.778Z,98370.44
2023-05-17T13:52:03.755Z,98366.53
2023-05-17T13:54:31.349Z,98370.09
2023-05-17T13:56:58.891Z,98367.94
2023-05-17T13:59:26.443Z,98372.06
2023-05-17T14:01:54.267Z,98378.41
2023-05-17T14:04:21.737Z,98376.69
2023-05-17T14:06:51.147Z,98390.28
2023-05-17T14:09:20.545Z,98378.34
2023-05-17T14:11:48.046Z,98379.94
2023-05-17T14:14:15.748Z,98380.31
2023-05-17T14:16:43.283Z,98382.31
2023-05-17T14:19:10.915Z,98378.59
2023-05-17T14:21:38.578Z,98389.03
2023-05-17T14:24:06.828Z,98388.31
2023-05-17T14:26:34.348Z,98387.97
2023-05-17T14:29:01.945Z,98386.50
2023-05-17T14:31:30.387Z,98386.59
2023-05-17T14:33:58.888Z,98387.53
2023-05-17T14:36:26.655Z,98380.50
2023-05-17T14:38:54.292Z,98393.66
2023-05-17T14:41:22.692Z,98387.59
2023-05-17T14:43:50.270Z,98377.22
2023-05-17T14:46:17.804Z,98387.28
2023-05-17T14:48:45.376Z,98388.03
2023-05-17T14:51:13.872Z,98385.50
2023-05-17T14:53:41.480Z,98388.72
2023-05-17T14:56:08.980Z,98382.63
2023-05-17T14:58:36.570Z,98383.31
2023-05-17T15:01:06.152Z,98379.97
2023-05-17T15:03:34.970Z,98385.22
2023-05-17T15:06:06.921Z,98392.31
2023-05-17T15:08:36.224Z,98396.22
2023-05-17T15:11:03.765Z,98382.84
2023-05-17T15:13:31.644Z,98383.31
2023-05-17T15:15:59.597Z,98393.41
2023-05-17T15:18:27.215Z,98381.28
2023-05-17T15:20:54.706Z,98372.75
2023-05-17T15:23:22.179Z,98367.94
2023-05-17T15:25:49.823Z,98372.19
2023-05-17T15:28:20.013Z,98367.53
2023-05-17T15:30:47.930Z,98371.16
2023-05-17T15:33:16.007Z,98375.69
2023-05-17T15:35:44.921Z,98378.81
2023-05-17T15:38:12.347Z,98386.13
2023-05-17T15:40:39.876Z,98369.38
2023-05-17T15:43:07.415Z,98376.03
2023-05-17T15:45:34.876Z,98361.56
2023-05-17T15:48:02.755Z,98369.91
2023-05-17T15:50:30.267Z,98358.34
2023-05-17T15:52:57.743Z,98372.59
2023-05-17T15:55:25.338Z,98373.53
2023-05-17T15:57:52.789Z,98366.91
2023-05-17T16:00:21.230Z,98369.66
2023-05-17T16:02:48.875Z,98369.47
2023-05-17T16:05:16.594Z,98368.88
2023-05-17T16:07:46.990Z,98368.31
2023-05-17T16:10:14.625Z,98374.66
2023-05-17T16:12:42.097Z,98374.41
2023-05-17T16:15:10.017Z,98375.00
2023-05-17T16:17:37.539Z,98376.88
2023-05-17T16:20:05.659Z,98388.16
2023-05-17T16:22:33.650Z,98384.38
2023-05-17T16:25:01.215Z,98396.06
2023-05-17T16:27:28.733Z,98404.88
2023-05-17T16:29:56.405Z,98399.81
2023-05-17T16:32:23.912Z,98414.47
2023-05-17T16:34:51.891Z,98412.47
2023-05-17T16:37:19.426Z,98416.31
2023-05-17T16:39:47.525Z,98423.44
2023-05-17T16:42:15.298Z,98413.94
2023-05-17T16:44:42.774Z,98408.22
2023-05-17T16:47:10.437Z,98405.78
2023-05-17T16:49:38.918Z,98413.22
2023-05-17T16:52:06.505Z,98409.69
2023-05-17T16:54:35.599Z,98428.78
2023-05-17T16:57:08.374Z,98423.13
2023-05-17T16:59:36.266Z,98427.84
2023-05-17T17:02:04.539Z,98432.59
2023-05-17T17:04:32.342Z,98437.38
2023-05-17T17:07:00.436Z,98436.09
2023-05-17T17:09:28.330Z,98441.22
2023-05-17T17:11:55.848Z,98444.72
2023-05-17T17:14:24.473Z,98442.63
2023-05-17T17:16:51.987Z,98438.44
2023-05-17T17:19:19.675Z,98440.44
2023-05-17T17:21:47.246Z,98442.16
2023-05-17T17:24:14.895Z,98446.94
2023-05-17T17:26:42.568Z,98451.63
2023-05-17T17:29:10.530Z,98442.72
2023-05-17T17:31:38.250Z,98450.09
2023-05-17T17:34:06.006Z,98454.16
2023-05-17T17:36:33.485Z,98445.91
2023-05-17T17:39:01.042Z,98446.25
2023-05-17T17:41:29.230Z,98448.66
2023-05-17T17:43:56.750Z,98453.06
2023-05-17T17:46:25.484Z,98458.66
2023-05-17T17:48:54.434Z,98468.53
2023-05-17T17:51:23.697Z,98459.91
2023-05-17T17:53:53.250Z,98455.84
2023-05-17T17:56:21.579Z,98469.44
2023-05-17T17:58:49.056Z,98466.97
2023-05-17T18:01:16.592Z,98461.84
2023-05-17T18:03:44.209Z,98467.28
2023-05-17T18:06:11.706Z,98469.97
2023-05-17T18:08:39.294Z,98475.06
2023-05-17T18:11:06.871Z,98471.78
2023-05-17T18:13:34.529Z,98478.81
2023-05-17T18:16:02.121Z,98481.88
2023-05-17T18:18:29.758Z,98484.03
2023-05-17T18:20:57.352Z,98485.06
2023-05-17T18:23:25.150Z,98487.78
2023-05-17T18:25:52.727Z,98484.03
2023-05-17T18:28:33.532Z,98488.19
2023-05-17T18:31:07.726Z,98489.00
2023-05-17T18:33:35.263Z,98490.13
2023-05-17T18:36:02.914Z,98492.34
2023-05-17T18:38:30.469Z,98498.25
2023-05-17T18:40:57.992Z,98497.56
2023-05-17T18:43:25.625Z,98510.03
2023-05-17T18:45:53.425Z,98505.56
2023-05-17T18:48:22.358Z,98512.81
2023-05-17T18:50:50.060Z,98512.22
2023-05-17T18:53:17.587Z,98516.81
2023-05-17T18:55:45.157Z,98515.03
2023-05-17T18:58:12.686Z,98520.44
2023-05-17T19:00:40.329Z,98521.69
2023-05-17T19:03:07.990Z,98525.81
2023-05-17T19:05:35.676Z,98526.25
2023-05-17T19:08:03.204Z,98519.13
2023-05-17T19:10:30.954Z,98523.25
2023-05-17T19:12:58.589Z,98532.38
2023-05-17T19:15:26.493Z,98536.94
2023-05-17T19:17:54.138Z,98534.25
2023-05-17T19:20:21.764Z,98537.81
2023-05-17T19:22:49.268Z,98544.38
2023-05-17T19:25:17.905Z,98544.00
2023-05-17T19:27:47.896Z,98553.06
2023-05-17T19:30:15.488Z,98549.53
2023-05-17T19:32:43.026Z,98549.97
2023-05-17T19:35:10.988Z,98549.16
2023-05-17T19:37:38.616Z,98548.63
2023-05-17T19:40:06.924Z,98545.78
2023-05-17T19:42:34.528Z,98551.31
2023-05-17T19:45:02.154Z,98549.50
2023-05-17T19:47:29.696Z,98559.81
2023-05-17T19:49:57.184Z,98562.91
2023-05-17T19:52:24.783Z,98561.50
2023-05-17T19:54:52.404Z,98560.91
2023-05-17T19:57:19.962Z,98563.38
2023-05-17T19:59:47.529Z,98571.38
2023-05-17T20:02:15.399Z,98573.81
2023-05-17T20:04:43.014Z,98564.84
2023-05-17T20:07:10.823Z,98572.22
2023-05-17T20:09:38.697Z,98573.84
2023-05-17T20:12:07.312Z,98573.28
2023-05-17T20:14:35.278Z,98577.16
2023-05-17T20:17:02.772Z,98576.56
2023-05-17T20:19:30.266Z,98581.28
2023-05-17T20:21:57.848Z,98582.28
2023-05-17T20:24:29.007Z,98584.34
2023-05-17T20:26:59.764Z,98574.13
2023-05-17T20:29:27.504Z,98585.19
2023-05-17T20:31:55.183Z,98581.06
2023-05-17T20:34:22.956Z,98581.69
2023-05-17T20:36:50.604Z,98579.25
2023-05-17T20:39:19.209Z,98591.56
2023-05-17T20:41:49.004Z,98589.34
2023-05-17T20:44:18.941Z,98588.72
2023-05-17T20:46:46.806Z,98592.41
2023-05-17T20:49:14.357Z,98595.28
2023-05-17T20:51:41.845Z,98603.50
2023-05-17T20:54:09.472Z,98597.56
2023-05-17T20:56:37.210Z,98595.31
2023-05-17T20:59:04.713Z,98598.41
2023-05-17T21:01:32.763Z,98598.41
2023-05-17T21:04:01.517Z,98596.56
2023-05-17T21:06:32.322Z,98600.44
2023-05-17T21:09:02.646Z,98598.81
2023-05-17T21:11:30.530Z,98611.31
2023-05-17T21:13:59.853Z,98606.81
2023-05-17T21:16:27.510Z,98609.06
2023-05-17T21:18:55.326Z,98611.75
2023-05-17T21:21:22.961Z,98616.66
2023-05-17T21:23:50.491Z,98617.88
2023-05-17T21:26:18.027Z,98618.47
2023-05-17T21:28:45.832Z,98622.38
2023-05-17T21:31:13.521Z,98625.25
2023-05-17T21:33:41.070Z,98628.31
2023-05-17T21:36:08.638Z,98623.59
2023-05-17T21:38:36.238Z,98626.06
2023-05-17T21:41:03.803Z,98629.13
2023-05-17T21:43:31.368Z,98626.88
2023-05-17T21:45:58.909Z,98627.91
2023-05-17T21:48:26.427Z,98639.16
2023-05-17T21:50:53.961Z,98626.47
2023-05-17T21:53:21.755Z,98631.38
2023-05-17T21:56:01.300Z,98635.03
2023-05-17T21:58:31.311Z,98635.66
2023-05-17T22:00:58.958Z,98633.00
2023-05-17T22:03:27.030Z,98639.94
2023-05-17T22:05:54.819Z,98642.78
2023-05-17T22:08:22.549Z,98637.88
2023-05-17T22:10:50.426Z,98631.91
2023-05-17T22:13:18.521Z,98637.22
2023-05-17T22:15:46.237Z,98630.06
2023-05-17T22:18:14.031Z,98631.47
2023-05-17T22:20:41.673Z,98629.22
2023-05-17T22:23:09.412Z,98636.16
2023-05-17T22:25:42.422Z,98631.88
2023-05-17T22:28:11.326Z,98627.97
2023-05-17T22:30:38.833Z,98628.31
2023-05-17T22:33:06.561Z,98629.09
2023-05-17T22:35:34.031Z,98636.28
2023-05-17T22:38:01.592Z,98635.47
2023-05-17T22:40:29.401Z,98630.75
2023-05-17T22:42:58.826Z,98636.84
2023-05-17T22:45:30.228Z,98639.34
2023-05-17T22:47:58.011Z,98640.81
2023-05-17T22:50:30.877Z,98638.97
2023-05-17T22:53:01.469Z,98640.59
2023-05-17T22:55:29.464Z,98635.22
2023-05-17T22:57:57.912Z,98642.34
2023-05-17T23:00:26.314Z,98643.00
2023-05-17T23:02:54.046Z,98644.03
2023-05-17T23:05:22.339Z,98632.13
2023-05-17T23:07:49.844Z,98643.13
2023-05-17T23:10:17.376Z,98638.59
2023-05-17T23:12:44.842Z,98638.22
2023-05-17T23:15:12.663Z,98639.00
2023-05-17T23:17:41.361Z,98641.66
2023-05-17T23:20:10.517Z,98642.13
2023-05-17T23:22:39.140Z,98636.84
2023-05-17T23:25:07.090Z,98636.84
2023-05-17T23:27:38.381Z,98631.09
2023-05-17T23:30:07.469Z,98638.41
2023-05-17T23:32:35.043Z,98644.69
2023-05-17T23:35:05.462Z,98648.53
2023-05-17T23:37:33.878Z,98644.44
2023-05-17T23:40:01.900Z,98645.50
2023-05-17T23:42:29.692Z,98642.28
2023-05-17T23:44:57.410Z,98651.03
2023-05-17T23:47:25.857Z,98651.84
2023-05-17T23:49:53.576Z,98653.28
2023-05-17T23:52:23.829Z,98654.56
2023-05-17T23:54:51.525Z,98653.09
2023-05-17T23:57:18.961Z,98646.13
2023-05-17T23:59:46.519Z,98650.19
